Aylett, Virginia
Current Conditions -  °F | °C
As of 1:35 PM on Thursday 30 Oct 2014 (Local Time) from KXSA Reporting Station
Clear Clear  
Wind Chill: 62°   Ceiling: Unl
Heat Index: 62°   Visibility: 10mi
Dew Point: 32°   Wind: 3mph
Humidity: 33%   Direction: 280°W
Pressure: 30.04"   Gusts: 21mph
Location:  37.79°N, 77.11°W
Report Text: KXSA 301735Z AUTO 28003G18KT 10SM CLR 17/00 A3004 RMK AO2 T01650000
Loading
Personal Weather Stations






























Interactive Weather Map New forecast layout! Learn more

10-Day Weather Forecast

Advertisements
Track Severe Weather on mobile